Impacts TAF Board
For situational awareness. Not to be used for flight planning purposes.
IDs:

KPHL - Philadelphia Intl, PA, US

Issued at 1132 UTC 23 Mar 2019
Updated at 1325 UTC 23 Mar 2019
Potential Impact None Slight Moderate High
Time<<24/02Z 24/03Z 24/04Z 24/05Z 24/06Z 24/07Z 24/08Z 24/09Z 24/10Z 24/11Z 24/12Z 24/13Z 24/14Z>>
Type PRVL PRVL PRVL PRVL PRVL PRVL PRVL PRVL PRVL PRVL PRVL PRVL PRVL
VIS >6 >6 >6 >6 >6 >6 >6 >6 >6 >6 >6 >6 >6
CIG -- -- -- -- -- -- -- -- -- -- -- -- --
Cover SKC SKC SKC SKC SKC SKC SKC SKC SKC SKC SKC SKC SKC
FltCat VFR VFR VFR VFR VFR VFR VFR VFR VFR VFR VFR VFR VFR
WX -- -- -- -- -- -- -- -- -- -- -- -- --
WDir 280 280 280 280 280 280 280 280 280 280 280 250 250
WSpd 8 8 8 8 8 8 8 8 8 8 8 10 10
WGst -- -- -- -- -- -- -- -- -- -- -- -- --
Raw TAF
KPHL 231132Z 2312/2418 29014G26KT P6SM SCT045
  FM231300 29020G36KT P6SM SCT045
  FM231600 29018G28KT P6SM SKC
  FM232200 29012G20KT P6SM SKC
  FM240200 28008KT P6SM SKC
  FM241300 25010KT P6SM SKC


METAR Board
Radar Display
Forecast Discussion
For situational awareness. Not to be used for flight planning purposes.